Time;durP1;ratioP1;P1;durP2;ratioP2;P2;SDS_P1;SDS_P2;PMS_P1;PMS_P2;Temp;Humidity;BMP_temperature;BMP_pressure;BME280_temperature;BME280_humidity;BME280_pressure;Samples;Min_cycle;Max_cycle;Signal;HPM_P1;HPM_P2
2022/01/15 00:00:07;;;;;;;;;;;-2.10;99.90;-1.60;100921.00;;;;346633;28;97626;-87
2022/01/15 00:00:19;;;;;;;;;;;-2.20;99.90;-1.50;100927.00;;;;347023;28;82365;-87
2022/01/15 00:00:35;;;;;;;;;;;-2.20;99.90;-1.50;100932.00;;;;346218;28;95580;-88
2022/01/15 00:00:47;;;;;;;;;;;-2.20;99.90;-1.60;100924.00;;;;345929;28;83542;-87
2022/01/15 00:00:59;;;;;;;;;;;-2.20;99.90;-1.50;100921.00;;;;345305;28;96579;-87
2022/01/15 00:01:11;;;;;;;;;;;-2.20;99.90;-1.50;100923.00;;;;347483;28;83416;-88
2022/01/15 00:01:22;;;;;;;;;;;-2.20;99.90;-1.50;100920.00;;;;345290;28;95646;-88
2022/01/15 00:01:34;;;;;;;;;;;-2.20;99.90;-1.60;100923.00;;;;347414;28;82545;-87
2022/01/15 00:01:46;;;;;;;;;;;-2.20;99.90;-1.60;100924.00;;;;345290;28;96531;-87
2022/01/15 00:01:58;;;;;;;;;;;-2.20;99.90;-1.60;100921.00;;;;346221;28;83319;-87
2022/01/15 00:02:10;;;;;;;;;;;-2.20;99.90;-1.50;100928.00;;;;343911;28;96836;-87
2022/01/15 00:02:22;;;;;;;;;;;-2.20;99.90;-1.50;100923.00;;;;345967;28;83501;-88
2022/01/15 00:02:34;;;;;;;;;;;-2.20;99.90;-1.40;100921.00;;;;344942;28;96095;-88
2022/01/15 00:02:46;;;;;;;;;;;-2.20;99.90;-1.40;100918.00;;;;345942;28;82519;-87
2022/01/15 00:02:58;;;;;;;;;;;-2.10;99.90;-1.40;100919.00;;;;346794;28;96559;-87
2022/01/15 00:03:10;;;;;;;;;;;-2.20;99.90;-1.40;100917.00;;;;347553;28;83375;-88
2022/01/15 00:03:22;;;;;;;;;;;-2.20;99.90;-1.50;100921.00;;;;345339;28;94574;-87
2022/01/15 00:03:34;;;;;;;;;;;-2.20;99.90;-1.40;100923.00;;;;346205;28;83430;-87
2022/01/15 00:03:46;;;;;;;;;;;-2.20;99.90;-1.30;100919.00;;;;345399;28;95462;-88
2022/01/15 00:03:58;;;;;;;;;;;-2.20;99.90;-1.30;100926.00;;;;344993;28;83259;-87
2022/01/15 00:04:10;;;;;;;;;;;-2.20;99.90;-1.20;100918.00;;;;346746;28;96984;-88
2022/01/15 00:04:21;;;;;;;;;;;-2.10;99.90;-1.20;100922.00;;;;347406;28;83302;-87
2022/01/15 00:04:44;;;;;;;;;;;-2.10;99.90;-1.20;100921.00;;;;345317;28;96457;-86
2022/01/15 00:04:55;;;;;;;;;;;-2.10;99.90;-1.30;100924.00;;;;344739;28;83196;-87
2022/01/15 00:05:08;;;;;;;;;;;-2.10;99.90;-1.40;100918.00;;;;346851;28;96384;-87
2022/01/15 00:05:19;;;;;;;;;;;-2.10;99.90;-1.30;100930.00;;;;344620;28;83143;-87
2022/01/15 00:05:32;;;;;;;;;;;-2.10;99.90;-1.30;100919.00;;;;345864;28;96293;-87
2022/01/15 00:05:43;;;;;;;;;;;-2.10;99.90;-1.20;100915.00;;;;347584;28;82486;-87
2022/01/15 00:05:55;;;;;;;;;;;-2.10;99.90;-1.20;100916.00;;;;346716;28;96497;-88
2022/01/15 00:06:07;;;;;;;;;;;-2.10;99.90;-1.20;100924.00;;;;347529;28;83479;-88
2022/01/15 00:06:19;;;;;;;;;;;-2.10;99.90;-1.20;100918.00;;;;346740;28;96216;-88
2022/01/15 00:06:30;;;;;;;;;;;-2.00;99.90;-1.30;100929.00;;;;344775;28;83337;-88
2022/01/15 00:06:42;;;;;;;;;;;-2.00;99.90;-1.30;100927.00;;;;343806;28;96394;-87
2022/01/15 00:06:54;;;;;;;;;;;-2.00;99.90;-1.30;100925.00;;;;347509;28;83315;-87
2022/01/15 00:07:06;;;;;;;;;;;-2.00;99.90;-1.20;100916.00;;;;343906;28;96030;-88
2022/01/15 00:07:18;;;;;;;;;;;-2.00;99.90;-1.20;100928.00;;;;346102;28;83420;-87
2022/01/15 00:07:29;;;;;;;;;;;-2.00;99.90;-1.20;100908.00;;;;343835;28;95862;-87
2022/01/15 00:07:44;;;;;;;;;;;-2.00;99.90;-1.30;100921.00;;;;344661;28;82417;-88
2022/01/15 00:07:56;;;;;;;;;;;-2.00;99.90;-1.50;100927.00;;;;345376;28;93759;-87
2022/01/15 00:08:08;;;;;;;;;;;-2.00;99.90;-1.30;100926.00;;;;344588;28;83425;-88
2022/01/15 00:08:20;;;;;;;;;;;-2.00;99.90;-1.30;100919.00;;;;346647;28;95463;-87
2022/01/15 00:08:32;;;;;;;;;;;-2.00;99.90;-1.20;100919.00;;;;348352;27;82529;-87
2022/01/15 00:08:44;;;;;;;;;;;-2.00;99.90;-1.20;100921.00;;;;346606;27;95494;-87
2022/01/15 00:08:56;;;;;;;;;;;-2.00;99.90;-1.20;100918.00;;;;346064;28;82340;-88
2022/01/15 00:09:08;;;;;;;;;;;-2.00;99.90;-1.20;100915.00;;;;345280;28;95985;-87
2022/01/15 00:09:19;;;;;;;;;;;-2.00;99.90;-1.40;100916.00;;;;347417;28;82429;-87
2022/01/15 00:09:31;;;;;;;;;;;-2.00;99.90;-1.30;100920.00;;;;345252;28;96522;-87
2022/01/15 00:09:48;;;;;;;;;;;-2.00;99.90;-1.30;100918.00;;;;348665;27;82488;-87
2022/01/15 00:10:00;;;;;;;;;;;-2.00;99.90;-1.30;100926.00;;;;346647;28;95183;-87
2022/01/15 00:10:12;;;;;;;;;;;-2.00;99.90;-1.30;100915.00;;;;347565;28;83310;-88
2022/01/15 00:10:28;;;;;;;;;;;-2.00;99.90;-1.30;100923.00;;;;345200;28;95289;-87
2022/01/15 00:10:40;;;;;;;;;;;-2.00;99.90;-1.20;100912.00;;;;346051;28;82314;-87
2022/01/15 00:10:52;;;;;;;;;;;-2.00;99.90;-1.30;100918.00;;;;345225;28;95496;-86
2022/01/15 00:11:04;;;;;;;;;;;-2.00;99.90;-1.20;100922.00;;;;346223;28;82356;-88
2022/01/15 00:11:15;;;;;;;;;;;-2.00;99.90;-1.20;100916.00;;;;346616;28;96502;-88
2022/01/15 00:11:27;;;;;;;;;;;-2.00;99.90;-1.20;100921.00;;;;344733;28;88291;-88
2022/01/15 00:11:39;;;;;;;;;;;-2.00;99.90;-1.40;100926.00;;;;346693;28;96450;-87
2022/01/15 00:11:56;;;;;;;;;;;-2.00;99.90;-1.40;100921.00;;;;346161;28;83383;-88
2022/01/15 00:12:08;;;;;;;;;;;-2.00;99.90;-1.30;100925.00;;;;346717;28;92730;-87
2022/01/15 00:12:20;;;;;;;;;;;-2.00;99.90;-1.30;100919.00;;;;348833;27;83312;-87
2022/01/15 00:12:38;;;;;;;;;;;-2.00;99.90;-1.30;100919.00;;;;345317;28;94315;-88
2022/01/15 00:12:50;;;;;;;;;;;-2.00;99.90;-1.50;100927.00;;;;345936;28;83422;-87
2022/01/15 00:13:02;;;;;;;;;;;-2.00;99.90;-1.30;100917.00;;;;345250;28;96111;-87
2022/01/15 00:13:24;;;;;;;;;;;-2.00;99.90;-1.30;100916.00;;;;348834;27;83843;-88
2022/01/15 00:13:38;;;;;;;;;;;-2.10;99.90;-1.30;100921.00;;;;343919;28;96489;-88
2022/01/15 00:13:57;;;;;;;;;;;-2.00;99.90;-1.30;100921.00;;;;347339;28;83229;-87
2022/01/15 00:14:15;;;;;;;;;;;-2.00;99.90;-1.20;100918.00;;;;348182;27;95105;-87
2022/01/15 00:14:33;;;;;;;;;;;-2.00;99.90;-1.30;100920.00;;;;348506;27;82466;-88
2022/01/15 00:14:46;;;;;;;;;;;-2.10;99.90;-1.20;100918.00;;;;345063;28;96566;-87
2022/01/15 00:14:59;;;;;;;;;;;-2.10;99.90;-1.30;100911.00;;;;343830;28;83288;-87
2022/01/15 00:15:16;;;;;;;;;;;-2.10;99.90;-1.40;100923.00;;;;346672;28;95870;-87
2022/01/15 00:15:35;;;;;;;;;;;-2.10;99.90;-1.50;100933.00;;;;347232;28;83520;-87
2022/01/15 00:15:52;;;;;;;;;;;-2.10;99.90;-1.50;100928.00;;;;343884;28;96574;-88
2022/01/15 00:16:08;;;;;;;;;;;-2.10;99.90;-1.50;100926.00;;;;347357;28;83399;-88
2022/01/15 00:16:34;;;;;;;;;;;-2.10;99.90;-1.50;100930.00;;;;345251;28;97168;-88
2022/01/15 00:16:48;;;;;;;;;;;-2.10;99.90;-1.40;100927.00;;;;347374;28;83316;-87
2022/01/15 00:17:08;;;;;;;;;;;-2.10;99.90;-1.50;100931.00;;;;345391;28;93147;-87
2022/01/15 00:17:32;;;;;;;;;;;-2.10;99.90;-1.50;100930.00;;;;346122;28;83234;-87
2022/01/15 00:17:48;;;;;;;;;;;-2.10;99.90;-1.40;100931.00;;;;345269;28;95718;-87
2022/01/15 00:18:11;;;;;;;;;;;-2.10;99.90;-1.40;100923.00;;;;346049;28;83317;-87
2022/01/15 00:18:39;;;;;;;;;;;-2.10;99.90;-1.60;100922.00;;;;345246;28;96534;-87
2022/01/15 00:19:09;;;;;;;;;;;-2.20;99.90;-1.60;100930.00;;;;347376;28;83418;-87
2022/01/15 00:19:31;;;;;;;;;;;-2.20;99.90;-1.60;100932.00;;;;345170;28;95152;-87
2022/01/15 00:19:43;;;;;;;;;;;-2.20;99.90;-1.60;100918.00;;;;347478;28;83238;-87
2022/01/15 00:19:55;;;;;;;;;;;-2.20;99.90;-1.50;100929.00;;;;345247;28;96417;-88
2022/01/15 00:20:07;;;;;;;;;;;-2.20;99.90;-1.50;100930.00;;;;348763;27;82384;-87
2022/01/15 00:20:19;;;;;;;;;;;-2.20;99.90;-1.60;100928.00;;;;345324;28;96277;-87
2022/01/15 00:20:31;;;;;;;;;;;-2.20;99.90;-1.60;100926.00;;;;343282;28;83355;-87
2022/01/15 00:20:43;;;;;;;;;;;-2.20;99.90;-1.60;100929.00;;;;345227;28;96378;-88
2022/01/15 00:20:54;;;;;;;;;;;-2.20;99.90;-1.60;100931.00;;;;346041;28;83546;-88
2022/01/15 00:21:07;;;;;;;;;;;-2.20;99.90;-1.70;100927.00;;;;346682;28;93734;-87
2022/01/15 00:21:19;;;;;;;;;;;-2.20;99.90;-1.60;100929.00;;;;347357;28;82347;-87
2022/01/15 00:21:31;;;;;;;;;;;-2.20;99.90;-1.50;100922.00;;;;345192;28;95167;-87
2022/01/15 00:21:43;;;;;;;;;;;-2.20;99.90;-1.60;100919.00;;;;344631;28;83233;-88
2022/01/15 00:21:55;;;;;;;;;;;-2.20;99.90;-1.60;100926.00;;;;345213;28;96475;-87
2022/01/15 00:22:14;;;;;;;;;;;-2.20;99.90;-1.60;100924.00;;;;347412;28;83405;-88
2022/01/15 00:22:26;;;;;;;;;;;-2.20;99.90;-1.60;100917.00;;;;343945;28;95729;-88
2022/01/15 00:22:43;;;;;;;;;;;-2.20;99.90;-1.40;100919.00;;;;345863;28;83458;-87
2022/01/15 00:22:56;;;;;;;;;;;-2.20;99.90;-1.40;100916.00;;;;346589;28;96780;-87
2022/01/15 00:23:08;;;;;;;;;;;-2.20;99.90;-1.50;100931.00;;;;346052;28;83328;-87
2022/01/15 00:23:19;;;;;;;;;;;-2.20;99.90;-1.50;100927.00;;;;346591;28;97293;-87
2022/01/15 00:23:31;;;;;;;;;;;-2.20;99.90;-1.50;100928.00;;;;349288;27;83447;-87
2022/01/15 00:23:43;;;;;;;;;;;-2.20;99.90;-1.50;100930.00;;;;346609;28;96392;-88
2022/01/15 00:23:55;;;;;;;;;;;-2.20;99.90;-1.50;100924.00;;;;347225;28;83312;-87
2022/01/15 00:24:07;;;;;;;;;;;-2.20;99.90;-1.50;100927.00;;;;345219;28;97111;-87
2022/01/15 00:24:21;;;;;;;;;;;-2.20;99.90;-1.50;100925.00;;;;347405;28;82266;-88
2022/01/15 00:24:32;;;;;;;;;;;-2.20;99.90;-1.60;100925.00;;;;345329;28;92936;-87
2022/01/15 00:24:45;;;;;;;;;;;-2.20;99.90;-1.50;100929.00;;;;344644;28;83485;-87
2022/01/15 00:24:57;;;;;;;;;;;-2.20;99.90;-1.60;100923.00;;;;343891;28;96435;-87
2022/01/15 00:25:09;;;;;;;;;;;-2.20;99.90;-1.50;100930.00;;;;346052;28;83257;-87
2022/01/15 00:25:21;;;;;;;;;;;-2.20;99.90;-1.40;100924.00;;;;346535;28;97173;-87
2022/01/15 00:25:33;;;;;;;;;;;-2.20;99.90;-1.40;100924.00;;;;347398;28;83263;-87
2022/01/15 00:25:45;;;;;;;;;;;-2.20;99.90;-1.50;100917.00;;;;345295;28;94718;-88
2022/01/15 00:25:56;;;;;;;;;;;-2.20;99.90;-1.50;100935.00;;;;347453;28;82399;-87
2022/01/15 00:26:08;;;;;;;;;;;-2.20;99.90;-1.40;100922.00;;;;345175;28;96240;-88
2022/01/15 00:26:20;;;;;;;;;;;-2.20;99.90;-1.40;100924.00;;;;347404;28;83373;-87
2022/01/15 00:26:32;;;;;;;;;;;-2.20;99.90;-1.40;100926.00;;;;343977;28;95776;-87
2022/01/15 00:26:44;;;;;;;;;;;-2.20;99.90;-1.40;100923.00;;;;347244;28;83436;-88
2022/01/15 00:26:56;;;;;;;;;;;-2.20;99.90;-1.50;100931.00;;;;346657;28;96771;-88
2022/01/15 00:27:08;;;;;;;;;;;-2.20;99.90;-1.50;100920.00;;;;348913;27;82468;-87
2022/01/15 00:27:19;;;;;;;;;;;-2.20;99.90;-1.40;100921.00;;;;345103;28;96794;-87
2022/01/15 00:27:31;;;;;;;;;;;-2.20;99.90;-1.30;100924.00;;;;347221;28;83907;-87
2022/01/15 00:27:44;;;;;;;;;;;-2.10;99.90;-1.20;100916.00;;;;348082;27;97266;-87
2022/01/15 00:27:56;;;;;;;;;;;-2.10;99.90;-1.30;100918.00;;;;345982;28;82474;-87
2022/01/15 00:28:08;;;;;;;;;;;-2.10;99.90;-1.30;100927.00;;;;348003;27;93687;-88
2022/01/15 00:28:20;;;;;;;;;;;-2.10;99.90;-1.30;100918.00;;;;347436;28;83173;-87
2022/01/15 00:28:32;;;;;;;;;;;-2.10;99.90;-1.30;100929.00;;;;346713;28;96150;-88
2022/01/15 00:28:44;;;;;;;;;;;-2.10;99.90;-1.30;100917.00;;;;346004;28;83330;-87
2022/01/15 00:28:55;;;;;;;;;;;-2.10;99.90;-1.30;100924.00;;;;347975;27;96641;-87
2022/01/15 00:29:07;;;;;;;;;;;-2.10;99.90;-1.20;100925.00;;;;346060;28;82347;-87
2022/01/15 00:29:19;;;;;;;;;;;-2.10;99.90;-1.40;100914.00;;;;346580;27;97176;-88
2022/01/15 00:29:32;;;;;;;;;;;-2.10;99.90;-1.30;100922.00;;;;347987;27;83629;-87
2022/01/15 00:29:43;;;;;;;;;;;-2.10;99.90;-1.20;100918.00;;;;345191;28;96584;-88
2022/01/15 00:29:55;;;;;;;;;;;-2.00;99.90;-1.20;100917.00;;;;346012;28;82507;-87
2022/01/15 00:30:07;;;;;;;;;;;-2.00;99.90;-1.20;100913.00;;;;343759;28;95863;-87
2022/01/15 00:30:19;;;;;;;;;;;-2.10;99.90;-1.20;100916.00;;;;346062;28;83363;-87
2022/01/15 00:30:31;;;;;;;;;;;-2.00;99.90;-1.20;100920.00;;;;347905;27;95147;-87
2022/01/15 00:30:43;;;;;;;;;;;-2.00;99.90;-1.10;100907.00;;;;345939;28;82582;-88
2022/01/15 00:30:55;;;;;;;;;;;-2.00;99.90;-1.10;100908.00;;;;345118;28;96985;-87
2022/01/15 00:31:07;;;;;;;;;;;-2.00;99.90;-1.20;100913.00;;;;346028;28;83437;-87
2022/01/15 00:31:19;;;;;;;;;;;-2.00;99.90;-1.20;100916.00;;;;345185;28;96638;-88
2022/01/15 00:31:31;;;;;;;;;;;-2.00;99.90;-1.10;100915.00;;;;346152;28;82369;-87
2022/01/15 00:31:42;;;;;;;;;;;-2.00;99.90;-1.10;100914.00;;;;345277;28;93123;-87
2022/01/15 00:31:54;;;;;;;;;;;-2.00;99.90;-1.10;100912.00;;;;346077;28;82231;-87
2022/01/15 00:32:07;;;;;;;;;;;-2.00;99.90;-1.20;100920.00;;;;346567;28;96492;-87
2022/01/15 00:32:18;;;;;;;;;;;-2.00;99.90;-1.30;100917.00;;;;348876;27;82300;-87
2022/01/15 00:32:30;;;;;;;;;;;-2.00;99.90;-1.30;100912.00;;;;346661;28;95778;-87
2022/01/15 00:32:42;;;;;;;;;;;-2.00;99.90;-1.30;100910.00;;;;349195;27;83299;-87
2022/01/15 00:32:53;;;;;;;;;;;-2.00;99.90;-1.20;100913.00;;;;346563;28;97181;-88
2022/01/15 00:33:05;;;;;;;;;;;-2.00;99.90;-1.20;100917.00;;;;344609;28;83457;-88
2022/01/15 00:33:17;;;;;;;;;;;-2.00;99.90;-1.20;100907.00;;;;346569;28;96652;-87
2022/01/15 00:33:30;;;;;;;;;;;-2.00;99.90;-1.10;100907.00;;;;347375;28;83208;-87
2022/01/15 00:33:42;;;;;;;;;;;-2.00;99.90;-1.20;100904.00;;;;343868;28;96245;-87
2022/01/15 00:33:53;;;;;;;;;;;-2.00;99.90;-1.20;100906.00;;;;347471;28;83356;-88
2022/01/15 00:34:05;;;;;;;;;;;-2.00;99.90;-1.20;100910.00;;;;345080;28;97405;-88
2022/01/15 00:34:17;;;;;;;;;;;-2.00;99.90;-1.20;100909.00;;;;345803;28;83243;-87
2022/01/15 00:34:28;;;;;;;;;;;-1.90;99.90;-1.20;100911.00;;;;346750;28;92219;-88
2022/01/15 00:34:40;;;;;;;;;;;-1.90;99.90;-1.20;100908.00;;;;347405;28;82425;-87
2022/01/15 00:34:52;;;;;;;;;;;-1.90;99.90;-1.20;100917.00;;;;346624;28;96401;-87
2022/01/15 00:35:05;;;;;;;;;;;-1.90;99.90;-1.20;100915.00;;;;345721;28;83540;-87
2022/01/15 00:35:17;;;;;;;;;;;-1.90;99.90;-1.30;100909.00;;;;346603;28;96384;-87
2022/01/15 00:35:29;;;;;;;;;;;-1.90;99.90;-1.20;100908.00;;;;346857;28;83605;-88
2022/01/15 00:35:41;;;;;;;;;;;-1.90;99.90;-1.10;100906.00;;;;347862;27;94061;-87
2022/01/15 00:35:53;;;;;;;;;;;-2.00;99.90;-1.10;100900.00;;;;347368;28;82476;-88
2022/01/15 00:36:05;;;;;;;;;;;-1.90;99.90;-1.00;100899.00;;;;347942;27;97300;-87
2022/01/15 00:36:17;;;;;;;;;;;-1.90;99.90;-1.00;100901.00;;;;345858;28;83390;-88
2022/01/15 00:36:29;;;;;;;;;;;-1.90;99.90;-1.00;100909.00;;;;345686;28;94951;-87
2022/01/15 00:36:40;;;;;;;;;;;-1.90;99.90;-1.10;100909.00;;;;346026;28;82368;-87
2022/01/15 00:36:52;;;;;;;;;;;-1.90;99.90;-1.00;100904.00;;;;345198;28;96848;-87
2022/01/15 00:37:04;;;;;;;;;;;-1.90;99.90;-1.00;100903.00;;;;347431;28;83250;-88
2022/01/15 00:37:16;;;;;;;;;;;-1.80;99.90;-1.00;100892.00;;;;345152;28;95949;-87
2022/01/15 00:37:31;;;;;;;;;;;-1.80;99.90;-1.00;100906.00;;;;347334;28;83467;-87
2022/01/15 00:37:42;;;;;;;;;;;-1.80;99.90;-1.00;100905.00;;;;345191;28;95644;-87
2022/01/15 00:37:55;;;;;;;;;;;-1.80;99.90;-1.10;100896.00;;;;347452;28;82536;-87
2022/01/15 00:38:06;;;;;;;;;;;-1.80;99.90;-1.00;100895.00;;;;346293;28;96525;-88
2022/01/15 00:38:18;;;;;;;;;;;-1.80;99.90;-1.00;100898.00;;;;348605;27;82563;-87
2022/01/15 00:38:30;;;;;;;;;;;-1.80;99.90;-1.00;100906.00;;;;346087;28;95301;-87
2022/01/15 00:38:42;;;;;;;;;;;-1.80;99.90;-1.00;100901.00;;;;346537;28;82258;-88
2022/01/15 00:38:53;;;;;;;;;;;-1.80;99.90;-1.00;100894.00;;;;347784;27;97140;-87
2022/01/15 00:39:05;;;;;;;;;;;-1.80;99.90;-0.90;100904.00;;;;347372;28;83298;-87
2022/01/15 00:39:17;;;;;;;;;;;-1.80;99.90;-1.00;100900.00;;;;346387;28;97169;-87
2022/01/15 00:39:29;;;;;;;;;;;-1.70;99.90;-0.90;100891.00;;;;347241;28;83401;-87
2022/01/15 00:39:40;;;;;;;;;;;-1.80;99.90;-0.90;100897.00;;;;346538;28;96567;-87
2022/01/15 00:40:03;;;;;;;;;;;-1.80;99.90;-0.90;100894.00;;;;347346;28;83448;-87
2022/01/15 00:40:16;;;;;;;;;;;-1.70;99.90;-0.90;100905.00;;;;343723;28;96468;-87
2022/01/15 00:40:28;;;;;;;;;;;-1.70;99.90;-1.00;100903.00;;;;344564;28;83234;-87
2022/01/15 00:40:40;;;;;;;;;;;-1.70;99.90;-1.00;100897.00;;;;343674;28;94621;-88
2022/01/15 00:40:52;;;;;;;;;;;-1.70;99.90;-1.10;100897.00;;;;344566;28;83464;-87
2022/01/15 00:41:03;;;;;;;;;;;-1.70;99.90;-1.10;100901.00;;;;345237;28;96771;-87
2022/01/15 00:41:17;;;;;;;;;;;-1.80;99.90;-1.10;100896.00;;;;347381;28;82358;-88
2022/01/15 00:41:29;;;;;;;;;;;-1.70;99.90;-1.10;100901.00;;;;347266;27;95911;-87
2022/01/15 00:41:41;;;;;;;;;;;-1.70;99.90;-1.00;100893.00;;;;346658;28;83559;-87
2022/01/15 00:41:52;;;;;;;;;;;-1.80;99.90;-1.00;100891.00;;;;348046;27;93638;-87
2022/01/15 00:42:08;;;;;;;;;;;-1.80;99.90;-1.00;100897.00;;;;343229;28;82363;-88
2022/01/15 00:42:19;;;;;;;;;;;-1.70;99.90;-1.00;100902.00;;;;345200;28;96161;-87
2022/01/15 00:42:33;;;;;;;;;;;-1.80;99.90;-1.00;100894.00;;;;348104;27;83382;-87
2022/01/15 00:42:45;;;;;;;;;;;-1.70;99.90;-0.90;100885.00;;;;345274;28;95643;-87
2022/01/15 00:42:57;;;;;;;;;;;-1.70;99.90;-1.00;100893.00;;;;347325;28;83409;-88
2022/01/15 00:43:09;;;;;;;;;;;-1.70;99.90;-0.90;100891.00;;;;347834;27;94247;-88
2022/01/15 00:43:21;;;;;;;;;;;-1.70;99.90;-0.90;100894.00;;;;347037;28;83407;-87
2022/01/15 00:43:32;;;;;;;;;;;-1.70;99.90;-0.90;100899.00;;;;346585;28;96646;-87
2022/01/15 00:43:44;;;;;;;;;;;-1.70;99.90;-0.90;100892.00;;;;347448;28;82487;-88
2022/01/15 00:43:56;;;;;;;;;;;-1.70;99.90;-0.90;100892.00;;;;350791;27;95350;-87
2022/01/15 00:44:08;;;;;;;;;;;-1.70;99.90;-0.90;100899.00;;;;347285;28;83451;-88
2022/01/15 00:44:20;;;;;;;;;;;-1.70;99.90;-1.00;100895.00;;;;346537;28;95502;-88
2022/01/15 00:44:32;;;;;;;;;;;-1.60;99.90;-1.00;100901.00;;;;346900;27;83526;-87
2022/01/15 00:44:48;;;;;;;;;;;-1.70;99.90;-1.00;100899.00;;;;346427;28;95563;-87
2022/01/15 00:45:01;;;;;;;;;;;-1.70;99.90;-1.00;100897.00;;;;347318;28;83361;-87
2022/01/15 00:45:19;;;;;;;;;;;-1.70;99.90;-1.00;100895.00;;;;345179;28;95207;-87
2022/01/15 00:45:33;;;;;;;;;;;-1.70;99.90;-1.10;100898.00;;;;345633;28;84230;-87
2022/01/15 00:45:45;;;;;;;;;;;-1.70;99.90;-1.00;100891.00;;;;345143;28;96488;-87
2022/01/15 00:45:58;;;;;;;;;;;-1.70;99.90;-1.20;100890.00;;;;347507;28;83281;-88
2022/01/15 00:46:10;;;;;;;;;;;-1.70;99.90;-1.10;100901.00;;;;346690;28;97710;-87
2022/01/15 00:46:22;;;;;;;;;;;-1.70;99.90;-1.00;100894.00;;;;347694;28;82428;-87
2022/01/15 00:46:34;;;;;;;;;;;-1.80;99.90;-1.00;100892.00;;;;346802;28;96725;-87
2022/01/15 00:46:45;;;;;;;;;;;-1.80;99.90;-1.00;100892.00;;;;347503;27;83524;-87
2022/01/15 00:46:57;;;;;;;;;;;-1.70;99.90;-1.00;100897.00;;;;345597;28;91872;-87
2022/01/15 00:47:09;;;;;;;;;;;-1.70;99.90;-1.40;100894.00;;;;346202;28;83514;-88
2022/01/15 00:47:21;;;;;;;;;;;-1.80;99.90;-1.60;100896.00;;;;346707;28;97168;-88
2022/01/15 00:47:33;;;;;;;;;;;-1.90;99.90;-1.50;100899.00;;;;348734;27;82601;-87
2022/01/15 00:47:45;;;;;;;;;;;-1.90;99.90;-1.30;100895.00;;;;345341;28;96580;-87
2022/01/15 00:47:57;;;;;;;;;;;-1.90;99.90;-1.50;100896.00;;;;347562;28;83276;-87
2022/01/15 00:48:08;;;;;;;;;;;-1.90;99.90;-1.70;100895.00;;;;346773;28;96492;-87
2022/01/15 00:48:20;;;;;;;;;;;-1.90;99.90;-1.70;100897.00;;;;344784;28;83439;-87
2022/01/15 00:48:32;;;;;;;;;;;-2.00;99.90;-1.60;100888.00;;;;347692;27;95465;-87
2022/01/15 00:48:43;;;;;;;;;;;-2.00;99.90;-1.50;100892.00;;;;347530;27;83383;-87
2022/01/15 00:48:55;;;;;;;;;;;-2.00;99.90;-1.40;100885.00;;;;346602;28;95587;-87
2022/01/15 00:49:08;;;;;;;;;;;-2.00;99.90;-1.30;100889.00;;;;347723;28;83103;-87
2022/01/15 00:49:20;;;;;;;;;;;-2.00;99.90;-1.40;100887.00;;;;345214;28;96907;-87
2022/01/15 00:49:32;;;;;;;;;;;-2.00;99.90;-1.60;100892.00;;;;347537;28;83280;-87
2022/01/15 00:49:43;;;;;;;;;;;-2.00;99.90;-1.80;100898.00;;;;345457;28;96269;-87
2022/01/15 00:49:55;;;;;;;;;;;-2.10;99.90;-1.90;100893.00;;;;347586;28;83263;-88
2022/01/15 00:50:07;;;;;;;;;;;-2.20;99.90;-1.80;100896.00;;;;344030;28;96300;-87
2022/01/15 00:50:19;;;;;;;;;;;-2.20;99.90;-1.70;100888.00;;;;346141;28;83212;-87
2022/01/15 00:50:31;;;;;;;;;;;-2.20;99.90;-1.70;100886.00;;;;344822;28;94077;-87
2022/01/15 00:50:43;;;;;;;;;;;-2.20;99.90;-1.70;100893.00;;;;346026;28;82563;-86
2022/01/15 00:50:54;;;;;;;;;;;-2.20;99.90;-1.80;100887.00;;;;346794;28;95618;-87
2022/01/15 00:51:06;;;;;;;;;;;-2.20;99.90;-1.90;100889.00;;;;344877;28;82415;-87
2022/01/15 00:51:18;;;;;;;;;;;-2.20;99.90;-1.80;100891.00;;;;346717;28;96823;-87
2022/01/15 00:51:30;;;;;;;;;;;-2.30;99.90;-1.80;100896.00;;;;346154;28;83477;-87
2022/01/15 00:51:41;;;;;;;;;;;-2.30;99.90;-2.00;100892.00;;;;346857;28;96287;-87
2022/01/15 00:51:53;;;;;;;;;;;-2.30;99.90;-1.90;100888.00;;;;346277;28;83397;-87
2022/01/15 00:52:05;;;;;;;;;;;-2.40;99.90;-2.00;100895.00;;;;338335;28;97622;-87
2022/01/15 00:52:17;;;;;;;;;;;-2.40;99.90;-2.00;100887.00;;;;347483;28;83401;-87
2022/01/15 00:52:29;;;;;;;;;;;-2.40;99.90;-2.10;100893.00;;;;344011;28;96746;-87
2022/01/15 00:52:42;;;;;;;;;;;-2.40;99.90;-2.10;100891.00;;;;337852;28;82498;-87
2022/01/15 00:52:53;;;;;;;;;;;-2.50;99.90;-2.00;100882.00;;;;347959;27;95878;-87
2022/01/15 00:53:05;;;;;;;;;;;-2.50;99.90;-1.90;100891.00;;;;346198;28;83429;-87
2022/01/15 00:53:17;;;;;;;;;;;-2.50;99.90;-1.80;100889.00;;;;338342;28;97107;-87
2022/01/15 00:53:29;;;;;;;;;;;-2.50;99.90;-1.80;100884.00;;;;344766;28;83453;-87
2022/01/15 00:53:40;;;;;;;;;;;-2.50;99.90;-1.90;100886.00;;;;337897;28;96436;-88
2022/01/15 00:53:52;;;;;;;;;;;-2.50;99.90;-1.80;100891.00;;;;337936;28;82362;-88
2022/01/15 00:54:04;;;;;;;;;;;-2.50;99.90;-1.70;100880.00;;;;339761;28;96536;-88
2022/01/15 00:54:15;;;;;;;;;;;-2.50;99.90;-1.70;100885.00;;;;339112;28;83346;-87
2022/01/15 00:54:27;;;;;;;;;;;-2.50;99.90;-1.70;100884.00;;;;340842;28;96489;-88
2022/01/15 00:54:39;;;;;;;;;;;-2.40;99.90;-1.60;100884.00;;;;340617;28;82538;-87
2022/01/15 00:54:51;;;;;;;;;;;-2.40;99.90;-1.60;100883.00;;;;338525;28;95579;-88
2022/01/15 00:55:04;;;;;;;;;;;-2.40;99.90;-1.70;100877.00;;;;340526;28;83335;-87
2022/01/15 00:55:16;;;;;;;;;;;-2.40;99.90;-1.80;100886.00;;;;338171;28;97119;-87
2022/01/15 00:55:29;;;;;;;;;;;-2.40;99.90;-1.80;100877.00;;;;339267;28;83552;-87
2022/01/15 00:55:41;;;;;;;;;;;-2.40;99.90;-1.80;100878.00;;;;338479;28;94797;-88
2022/01/15 00:55:52;;;;;;;;;;;-2.40;99.90;-1.60;100883.00;;;;339259;28;83277;-87
2022/01/15 00:56:04;;;;;;;;;;;-2.40;99.90;-1.60;100879.00;;;;337074;28;96717;-88
2022/01/15 00:56:16;;;;;;;;;;;-2.40;99.90;-1.50;100874.00;;;;340467;28;83479;-88
2022/01/15 00:56:28;;;;;;;;;;;-2.40;99.90;-1.60;100872.00;;;;339126;28;95257;-88
2022/01/15 00:56:40;;;;;;;;;;;-2.40;99.90;-1.50;100875.00;;;;339732;28;83308;-88
2022/01/15 00:56:51;;;;;;;;;;;-2.40;99.90;-1.50;100878.00;;;;346815;28;94456;-88
2022/01/15 00:57:03;;;;;;;;;;;-2.40;99.90;-1.60;100873.00;;;;337942;28;82568;-87
2022/01/15 00:57:15;;;;;;;;;;;-2.40;99.90;-1.70;100865.00;;;;339749;28;96452;-87
2022/01/15 00:57:27;;;;;;;;;;;-2.40;99.90;-1.70;100878.00;;;;340226;28;83257;-88
2022/01/15 00:57:38;;;;;;;;;;;-2.40;99.90;-1.70;100876.00;;;;337086;28;96281;-87
2022/01/15 00:57:50;;;;;;;;;;;-2.40;99.90;-1.60;100875.00;;;;339161;28;83423;-88
2022/01/15 00:58:02;;;;;;;;;;;-2.40;99.90;-1.60;100872.00;;;;338327;28;95293;-87
2022/01/15 00:58:14;;;;;;;;;;;-2.40;99.90;-1.60;100872.00;;;;337747;28;83497;-88
2022/01/15 00:58:26;;;;;;;;;;;-2.40;99.90;-1.60;100868.00;;;;336941;28;97023;-88
2022/01/15 00:58:38;;;;;;;;;;;-2.30;99.90;-1.50;100873.00;;;;339244;28;83432;-87
2022/01/15 00:58:52;;;;;;;;;;;-2.30;99.90;-1.60;100865.00;;;;337059;28;95764;-87
2022/01/15 00:59:03;;;;;;;;;;;-2.30;99.90;-1.60;100865.00;;;;339211;28;83165;-88
2022/01/15 00:59:18;;;;;;;;;;;-2.30;99.90;-1.50;100869.00;;;;338408;28;96447;-88
2022/01/15 00:59:29;;;;;;;;;;;-2.30;99.90;-1.50;100857.00;;;;344395;28;83487;-88
2022/01/15 00:59:41;;;;;;;;;;;-2.30;99.90;-1.40;100872.00;;;;342546;28;96212;-87
2022/01/15 00:59:53;;;;;;;;;;;-2.30;99.90;-1.50;100872.00;;;;346270;28;82446;-88
2022/01/15 01:00:06;;;;;;;;;;;-2.30;99.90;-1.50;100870.00;;;;344048;28;94137;-87
2022/01/15 01:00:20;;;;;;;;;;;-2.30;99.90;-1.40;100870.00;;;;347518;28;82399;-87
2022/01/15 01:00:32;;;;;;;;;;;-2.30;99.90;-1.50;100865.00;;;;340744;28;96675;-88
2022/01/15 01:00:45;;;;;;;;;;;-2.30;99.90;-1.60;100868.00;;;;339038;28;83397;-88
2022/01/15 01:00:57;;;;;;;;;;;-2.30;99.90;-1.50;100868.00;;;;337203;28;95678;-88
2022/01/15 01:01:09;;;;;;;;;;;-2.30;99.90;-1.60;100873.00;;;;337894;28;83365;-87
2022/01/15 01:01:21;;;;;;;;;;;-2.30;99.90;-1.50;100869.00;;;;335740;28;95553;-88
2022/01/15 01:01:34;;;;;;;;;;;-2.30;99.90;-1.50;100873.00;;;;337873;28;82284;-87
2022/01/15 01:01:46;;;;;;;;;;;-2.30;99.90;-1.50;100867.00;;;;341080;28;97349;-87
2022/01/15 01:01:58;;;;;;;;;;;-2.30;99.90;-1.40;100872.00;;;;340586;28;82287;-87
2022/01/15 01:02:10;;;;;;;;;;;-2.30;99.90;-1.40;100872.00;;;;340985;28;96646;-88